createdAt,value
2022-08-21T00:00:44.215Z,22.53
2022-08-21T00:03:14.896Z,22.49
2022-08-21T00:05:51.227Z,22.55
2022-08-21T00:08:22.853Z,22.56
2022-08-21T00:10:52.049Z,22.59
2022-08-21T00:13:21.452Z,22.30
2022-08-21T00:15:50.672Z,22.19
2022-08-21T00:18:19.170Z,21.87
2022-08-21T00:20:49.998Z,21.58
2022-08-21T00:23:18.587Z,21.61
2022-08-21T00:25:46.827Z,21.64
2022-08-21T00:28:15.939Z,21.26
2022-08-21T00:30:44.825Z,21.46
2022-08-21T00:33:14.226Z,21.55
2022-08-21T00:35:44.627Z,21.59
2022-08-21T00:38:14.447Z,21.67
2022-08-21T00:40:50.216Z,21.77
2022-08-21T00:43:22.131Z,21.79
2022-08-21T00:45:50.917Z,21.76
2022-08-21T00:48:19.273Z,21.86
2022-08-21T00:50:52.878Z,21.89
2022-08-21T00:53:22.383Z,21.93
2022-08-21T00:55:51.386Z,21.82
2022-08-21T00:58:20.730Z,21.95
2022-08-21T01:00:51.368Z,22.02
2022-08-21T01:03:23.765Z,22.04
2022-08-21T01:05:52.668Z,22.11
2022-08-21T01:08:24.217Z,22.07
2022-08-21T01:10:55.239Z,22.08
2022-08-21T01:13:28.587Z,22.01
2022-08-21T01:16:00.318Z,22.00
2022-08-21T01:18:29.756Z,22.03
2022-08-21T01:21:09.779Z,22.08
2022-08-21T01:23:46.687Z,22.05
2022-08-21T01:26:17.609Z,21.91
2022-08-21T01:28:52.916Z,21.95
2022-08-21T01:31:27.337Z,21.89
2022-08-21T01:33:59.258Z,21.90
2022-08-21T01:36:30.952Z,21.83
2022-08-21T01:39:02.050Z,21.72
2022-08-21T01:41:33.357Z,21.77
2022-08-21T01:44:06.430Z,21.85
2022-08-21T01:46:35.385Z,21.91
2022-08-21T01:49:06.159Z,21.87
2022-08-21T01:51:36.163Z,21.75
2022-08-21T01:54:04.312Z,21.78
2022-08-21T01:56:39.653Z,21.77
2022-08-21T01:59:09.086Z,21.76
2022-08-21T02:01:38.224Z,21.73
2022-08-21T02:04:07.260Z,21.63
2022-08-21T02:06:38.481Z,21.59
2022-08-21T02:09:08.674Z,21.51
2022-08-21T02:11:37.774Z,21.43
2022-08-21T02:14:09.665Z,21.37
2022-08-21T02:16:38.299Z,21.47
2022-08-21T02:19:06.930Z,21.44
2022-08-21T02:21:34.969Z,21.50
2022-08-21T02:24:07.844Z,21.46
2022-08-21T02:26:38.111Z,21.73
2022-08-21T02:29:07.118Z,21.57
2022-08-21T02:31:36.865Z,21.39
2022-08-21T02:34:05.526Z,21.18
2022-08-21T02:36:35.303Z,21.10
2022-08-21T02:39:08.404Z,21.12
2022-08-21T02:41:40.006Z,21.14
2022-08-21T02:44:11.336Z,21.22
2022-08-21T02:46:42.722Z,21.20
2022-08-21T02:49:14.955Z,21.18
2022-08-21T02:51:44.688Z,21.06
2022-08-21T02:54:15.500Z,21.11
2022-08-21T02:56:45.487Z,21.06
2022-08-21T02:59:15.525Z,21.06
2022-08-21T03:01:45.232Z,20.96
2022-08-21T03:04:16.314Z,20.91
2022-08-21T03:06:47.600Z,20.74
2022-08-21T03:09:18.055Z,20.57
2022-08-21T03:11:47.888Z,20.56
2022-08-21T03:14:16.994Z,20.41
2022-08-21T03:16:48.317Z,20.20
2022-08-21T03:19:19.050Z,20.28
2022-08-21T03:21:47.670Z,20.07
2022-08-21T03:24:17.395Z,20.21
2022-08-21T03:26:48.744Z,20.23
2022-08-21T03:29:17.075Z,20.32
2022-08-21T03:31:45.628Z,20.24
2022-08-21T03:34:13.715Z,20.23
2022-08-21T03:36:41.692Z,20.21
2022-08-21T03:39:09.898Z,20.11
2022-08-21T03:41:39.269Z,20.25
2022-08-21T03:44:07.290Z,20.10
2022-08-21T03:46:35.903Z,20.19
2022-08-21T03:49:04.473Z,20.29
2022-08-21T03:51:34.715Z,20.23
2022-08-21T03:54:03.422Z,20.30
2022-08-21T03:56:32.009Z,20.19
2022-08-21T03:59:03.534Z,20.19
2022-08-21T04:01:32.015Z,20.25
2022-08-21T04:04:00.774Z,20.03
2022-08-21T04:06:28.845Z,20.13
2022-08-21T04:08:56.896Z,20.09
2022-08-21T04:11:25.010Z,20.16
2022-08-21T04:13:53.239Z,20.15
2022-08-21T04:16:22.588Z,20.09
2022-08-21T04:18:53.392Z,19.72
2022-08-21T04:21:24.581Z,19.62
2022-08-21T04:23:56.583Z,19.66
2022-08-21T04:26:26.885Z,19.61
2022-08-21T04:28:59.441Z,19.62
2022-08-21T04:31:30.152Z,19.45
2022-08-21T04:34:01.414Z,19.61
2022-08-21T04:36:32.000Z,19.33
2022-08-21T04:39:03.610Z,19.59
2022-08-21T04:41:33.866Z,19.49
2022-08-21T04:44:02.847Z,19.42
2022-08-21T04:46:33.880Z,19.59
2022-08-21T04:49:03.708Z,19.59
2022-08-21T04:51:36.853Z,19.60
2022-08-21T04:54:11.502Z,19.45
2022-08-21T04:56:44.569Z,19.26
2022-08-21T04:59:17.798Z,19.26
2022-08-21T05:01:50.424Z,19.29
2022-08-21T05:04:26.272Z,19.30
2022-08-21T05:07:02.135Z,19.25
2022-08-21T05:09:34.931Z,19.46
2022-08-21T05:12:05.298Z,19.48
2022-08-21T05:14:34.237Z,19.53
2022-08-21T05:17:03.968Z,19.43
2022-08-21T05:19:32.442Z,19.34
2022-08-21T05:22:00.684Z,19.42
2022-08-21T05:24:29.124Z,19.32
2022-08-21T05:26:57.303Z,19.24
2022-08-21T05:29:25.534Z,19.24
2022-08-21T05:31:53.705Z,19.43
2022-08-21T05:34:24.783Z,19.36
2022-08-21T05:36:53.023Z,19.25
2022-08-21T05:39:20.975Z,19.46
2022-08-21T05:41:50.318Z,19.28
2022-08-21T05:44:18.839Z,19.05
2022-08-21T05:46:48.657Z,19.20
2022-08-21T05:49:16.665Z,19.21
2022-08-21T05:51:46.130Z,19.28
2022-08-21T05:54:14.415Z,19.13
2022-08-21T05:56:45.647Z,19.07
2022-08-21T05:59:14.335Z,18.83
2022-08-21T06:01:43.061Z,19.02
2022-08-21T06:04:11.698Z,19.00
2022-08-21T06:06:40.216Z,19.26
2022-08-21T06:09:09.655Z,19.15
2022-08-21T06:11:38.021Z,19.28
2022-08-21T06:14:07.413Z,19.20
2022-08-21T06:16:35.485Z,19.36
2022-08-21T06:19:03.862Z,19.39
2022-08-21T06:21:33.884Z,19.27
2022-08-21T06:24:02.427Z,19.12
2022-08-21T06:26:33.191Z,19.21
2022-08-21T06:29:03.053Z,19.46
2022-08-21T06:31:32.264Z,19.58
2022-08-21T06:34:02.354Z,19.55
2022-08-21T06:36:32.249Z,19.31
2022-08-21T06:39:02.289Z,19.45
2022-08-21T06:41:47.199Z,19.41
2022-08-21T06:44:19.055Z,19.54
2022-08-21T06:46:48.444Z,19.42
2022-08-21T06:49:21.637Z,19.68
2022-08-21T06:51:50.924Z,19.61
2022-08-21T06:54:20.076Z,19.64
2022-08-21T06:56:49.971Z,19.76
2022-08-21T06:59:18.028Z,19.81
2022-08-21T07:01:47.469Z,19.82
2022-08-21T07:04:16.104Z,19.91
2022-08-21T07:06:44.179Z,19.87
2022-08-21T07:09:14.942Z,19.98
2022-08-21T07:11:47.730Z,19.86
2022-08-21T07:14:20.452Z,20.09
2022-08-21T07:16:52.652Z,20.30
2022-08-21T07:19:21.426Z,20.13
2022-08-21T07:21:49.792Z,20.29
2022-08-21T07:24:17.896Z,20.43
2022-08-21T07:26:45.871Z,20.27
2022-08-21T07:29:13.883Z,20.39
2022-08-21T07:31:43.554Z,20.39
2022-08-21T07:34:11.622Z,20.48
2022-08-21T07:36:39.735Z,20.65
2022-08-21T07:39:08.875Z,20.63
2022-08-21T07:41:38.738Z,20.59
2022-08-21T07:44:06.800Z,20.43
2022-08-21T07:46:35.021Z,20.57
2022-08-21T07:49:05.726Z,20.83
2022-08-21T07:51:34.649Z,20.93
2022-08-21T07:54:03.748Z,20.89
2022-08-21T07:56:34.168Z,20.69
2022-08-21T07:59:05.481Z,20.75
2022-08-21T08:01:37.218Z,20.85
2022-08-21T08:06:38.414Z,21.05
2022-08-21T08:09:09.125Z,20.98
2022-08-21T08:11:41.522Z,21.09
2022-08-21T08:14:10.670Z,21.20
2022-08-21T08:16:38.889Z,21.32
2022-08-21T08:19:10.131Z,21.32
2022-08-21T08:21:39.689Z,21.13
2022-08-21T08:24:19.184Z,21.30
2022-08-21T08:26:53.790Z,21.35
2022-08-21T08:29:24.675Z,21.39
2022-08-21T08:31:54.855Z,21.33
2022-08-21T08:34:25.673Z,21.52
2022-08-21T08:36:59.506Z,21.70
2022-08-21T08:39:35.040Z,21.84
2022-08-21T08:42:32.200Z,21.67
2022-08-21T08:45:07.226Z,21.75
2022-08-21T08:47:40.381Z,21.61
2022-08-21T08:50:18.775Z,21.52
2022-08-21T08:52:59.097Z,21.44
2022-08-21T08:55:34.884Z,21.56
2022-08-21T08:58:05.292Z,21.76
2022-08-21T09:00:35.815Z,21.89
2022-08-21T09:03:06.201Z,21.98
2022-08-21T09:05:44.067Z,21.90
2022-08-21T09:08:50.456Z,21.91
2022-08-21T09:11:31.007Z,22.15
2022-08-21T09:14:13.481Z,22.33
2022-08-21T09:16:53.891Z,22.39
2022-08-21T09:19:38.539Z,22.38
2022-08-21T09:22:17.524Z,22.47
2022-08-21T09:24:54.602Z,22.35
2022-08-21T09:27:24.378Z,22.16
2022-08-21T09:29:55.951Z,22.32
2022-08-21T09:32:37.439Z,22.52
2022-08-21T09:35:09.841Z,22.63
2022-08-21T09:37:53.754Z,22.65
2022-08-21T09:40:40.811Z,22.86
2022-08-21T09:43:19.534Z,22.91
2022-08-21T09:45:49.593Z,22.74
2022-08-21T09:48:21.406Z,22.77
2022-08-21T09:50:54.401Z,22.84
2022-08-21T09:53:26.612Z,22.94
2022-08-21T09:56:14.490Z,22.84
2022-08-21T09:58:45.618Z,22.89
2022-08-21T10:01:17.987Z,23.06
2022-08-21T10:03:47.258Z,23.12
2022-08-21T10:06:24.905Z,23.16
2022-08-21T10:09:06.638Z,22.91
2022-08-21T10:11:35.448Z,23.17
2022-08-21T10:14:13.905Z,23.14
2022-08-21T10:16:55.029Z,23.25
2022-08-21T10:19:33.096Z,23.28
2022-08-21T10:22:09.839Z,23.31
2022-08-21T10:24:49.891Z,23.46
2022-08-21T10:27:29.071Z,23.62
2022-08-21T10:30:01.849Z,23.53
2022-08-21T10:32:42.710Z,23.63
2022-08-21T10:35:15.268Z,23.39
2022-08-21T10:38:05.799Z,23.27
2022-08-21T10:40:42.869Z,23.31
2022-08-21T10:43:26.722Z,23.24
2022-08-21T10:46:05.235Z,23.24
2022-08-21T10:48:39.065Z,23.23
2022-08-21T10:51:14.872Z,23.07
2022-08-21T10:54:05.617Z,22.96
2022-08-21T10:56:40.493Z,23.03
2022-08-21T10:59:29.155Z,23.19
2022-08-21T11:02:02.959Z,23.25
2022-08-21T11:04:49.954Z,23.03
2022-08-21T11:07:31.743Z,23.09
2022-08-21T11:10:09.320Z,23.21
2022-08-21T11:12:44.727Z,23.14
2022-08-21T11:15:29.649Z,23.31
2022-08-21T11:18:11.750Z,23.19
2022-08-21T11:20:45.736Z,23.38
2022-08-21T11:23:22.721Z,23.55
2022-08-21T11:25:57.493Z,23.57
2022-08-21T11:28:35.276Z,23.56
2022-08-21T11:31:17.064Z,23.65
2022-08-21T11:34:00.370Z,23.88
2022-08-21T11:36:38.933Z,24.07
2022-08-21T11:39:18.803Z,24.15
2022-08-21T11:41:55.414Z,24.08
2022-08-21T11:44:40.138Z,23.78
2022-08-21T11:47:18.270Z,23.78
2022-08-21T11:49:59.303Z,23.95
2022-08-21T11:52:35.588Z,23.94
2022-08-21T11:55:10.847Z,23.95
2022-08-21T11:57:49.385Z,23.89
2022-08-21T12:00:26.806Z,23.80
2022-08-21T12:03:01.555Z,23.77
2022-08-21T12:05:37.053Z,23.84
2022-08-21T12:08:13.553Z,24.04
2022-08-21T12:10:45.259Z,24.14
2022-08-21T12:13:39.784Z,24.08
2022-08-21T12:16:15.559Z,24.25
2022-08-21T12:18:46.252Z,24.65
2022-08-21T12:21:28.916Z,24.83
2022-08-21T12:24:18.601Z,25.00
2022-08-21T12:26:55.989Z,24.98
2022-08-21T12:29:27.956Z,24.82
2022-08-21T12:32:01.973Z,24.87
2022-08-21T12:34:37.235Z,25.00
2022-08-21T12:37:18.646Z,25.07
2022-08-21T12:39:53.218Z,24.96
2022-08-21T12:42:28.915Z,24.84
2022-08-21T12:45:06.117Z,24.78
2022-08-21T12:47:49.965Z,24.79
2022-08-21T12:50:22.592Z,24.58
2022-08-21T12:53:01.352Z,24.39
2022-08-21T12:55:34.612Z,24.37
2022-08-21T12:58:03.483Z,24.40
2022-08-21T13:00:32.412Z,24.25
2022-08-21T13:03:05.112Z,24.37
2022-08-21T13:05:37.395Z,24.42
2022-08-21T13:08:09.004Z,24.37
2022-08-21T13:10:39.813Z,24.65
2022-08-21T13:13:25.708Z,24.89
2022-08-21T13:16:03.242Z,25.02
2022-08-21T13:18:37.290Z,25.20
2022-08-21T13:21:08.723Z,25.10
2022-08-21T13:23:37.234Z,24.89
2022-08-21T13:26:18.564Z,24.83
2022-08-21T13:28:49.186Z,24.54
2022-08-21T13:31:22.670Z,24.69
2022-08-21T13:33:53.176Z,24.76
2022-08-21T13:36:27.219Z,24.70
2022-08-21T13:38:57.549Z,24.61
2022-08-21T13:41:30.819Z,24.70
2022-08-21T13:44:05.767Z,24.46
2022-08-21T13:46:39.190Z,24.61
2022-08-21T13:49:13.180Z,24.58
2022-08-21T13:51:45.510Z,24.61
2022-08-21T13:54:29.577Z,24.84
2022-08-21T13:56:58.978Z,24.94
2022-08-21T13:59:37.558Z,24.96
2022-08-21T14:02:16.849Z,25.10
2022-08-21T14:04:56.774Z,25.09
2022-08-21T14:07:33.885Z,24.99
2022-08-21T14:10:07.554Z,24.96
2022-08-21T14:12:43.495Z,24.93
2022-08-21T14:15:16.483Z,24.66
2022-08-21T14:17:47.995Z,24.43
2022-08-21T14:20:32.906Z,24.51
2022-08-21T14:23:03.511Z,24.47
2022-08-21T14:25:40.830Z,24.33
2022-08-21T14:28:23.428Z,24.32
2022-08-21T14:30:59.176Z,24.41
2022-08-21T14:33:35.973Z,24.53
2022-08-21T14:36:09.008Z,24.64
2022-08-21T14:38:42.574Z,24.75
2022-08-21T14:41:19.635Z,24.82
2022-08-21T14:44:04.035Z,24.93
2022-08-21T14:46:55.667Z,24.99
2022-08-21T14:49:28.999Z,25.06
2022-08-21T14:51:59.983Z,25.21
2022-08-21T14:54:31.241Z,25.21
2022-08-21T14:57:03.643Z,25.24
2022-08-21T14:59:33.958Z,25.28
2022-08-21T15:02:05.643Z,25.49
2022-08-21T15:04:35.032Z,25.72
2022-08-21T15:07:05.997Z,25.84
2022-08-21T15:09:36.645Z,25.96
2022-08-21T15:12:08.518Z,26.04
2022-08-21T15:14:42.682Z,26.12
2022-08-21T15:17:13.502Z,26.07
2022-08-21T15:19:42.589Z,26.03
2022-08-21T15:22:18.683Z,25.81
2022-08-21T15:24:50.493Z,25.83
2022-08-21T15:27:20.861Z,25.72
2022-08-21T15:29:51.568Z,25.91
2022-08-21T15:32:25.340Z,25.95
2022-08-21T15:34:56.196Z,25.86
2022-08-21T15:37:27.963Z,25.67
2022-08-21T15:39:58.101Z,25.41
2022-08-21T15:42:29.625Z,25.34
2022-08-21T15:45:00.299Z,25.21
2022-08-21T15:47:34.889Z,25.14
2022-08-21T15:50:08.929Z,25.02
2022-08-21T15:52:42.025Z,25.09
2022-08-21T15:55:12.108Z,25.09
2022-08-21T15:57:57.449Z,25.09
2022-08-21T16:00:29.231Z,25.02
2022-08-21T16:03:02.291Z,24.92
2022-08-21T16:05:31.693Z,24.81
2022-08-21T16:08:03.249Z,24.90
2022-08-21T16:10:32.372Z,24.95
2022-08-21T16:13:06.908Z,24.88
2022-08-21T16:15:36.434Z,24.79
2022-08-21T16:18:08.441Z,24.90
2022-08-21T16:20:39.419Z,24.83
2022-08-21T16:23:11.370Z,24.83
2022-08-21T16:25:43.445Z,24.89
2022-08-21T16:28:16.142Z,24.86
2022-08-21T16:30:48.981Z,24.81
2022-08-21T16:33:28.150Z,24.81
2022-08-21T16:35:56.658Z,24.72
2022-08-21T16:38:29.612Z,24.64
2022-08-21T16:40:58.290Z,24.71
2022-08-21T16:43:30.868Z,24.69
2022-08-21T16:46:00.557Z,24.62
2022-08-21T16:48:31.619Z,24.49
2022-08-21T16:51:02.949Z,24.52
2022-08-21T16:53:36.360Z,24.50
2022-08-21T16:56:08.066Z,24.43
2022-08-21T16:58:44.456Z,24.40
2022-08-21T17:01:18.179Z,24.40
2022-08-21T17:03:51.791Z,24.25
2022-08-21T17:06:22.612Z,24.14
2022-08-21T17:09:01.245Z,24.18
2022-08-21T17:11:37.901Z,24.24
2022-08-21T17:14:12.886Z,24.19
2022-08-21T17:16:43.451Z,24.21
2022-08-21T17:19:13.440Z,24.22
2022-08-21T17:21:42.168Z,24.10
2022-08-21T17:24:12.953Z,24.20
2022-08-21T17:26:41.473Z,24.12
2022-08-21T17:29:12.545Z,24.10
2022-08-21T17:31:42.509Z,24.00
2022-08-21T17:34:11.563Z,24.02
2022-08-21T17:36:39.762Z,23.98
2022-08-21T17:39:08.064Z,23.97
2022-08-21T17:41:37.706Z,23.92
2022-08-21T17:44:09.487Z,23.99
2022-08-21T17:46:38.945Z,24.04
2022-08-21T17:49:09.897Z,24.01
2022-08-21T17:51:38.056Z,24.01
2022-08-21T17:54:06.578Z,23.79
2022-08-21T17:56:38.923Z,23.86
2022-08-21T17:59:08.159Z,23.85
2022-08-21T18:01:40.018Z,23.85
2022-08-21T18:04:08.071Z,23.84
2022-08-21T18:06:36.470Z,23.83
2022-08-21T18:09:06.121Z,23.76
2022-08-21T18:11:35.824Z,23.80
2022-08-21T18:14:07.855Z,23.84
2022-08-21T18:16:37.953Z,23.87
2022-08-21T18:19:09.814Z,23.95
2022-08-21T18:21:38.022Z,23.91
2022-08-21T18:24:07.530Z,23.96
2022-08-21T18:26:38.533Z,23.83
2022-08-21T18:29:12.597Z,23.85
2022-08-21T18:31:43.612Z,23.83
2022-08-21T18:34:22.608Z,23.87
2022-08-21T18:36:54.938Z,23.78
2022-08-21T18:39:36.801Z,24.00
2022-08-21T18:42:11.571Z,23.85
2022-08-21T18:44:46.261Z,23.82
2022-08-21T18:47:22.080Z,23.86
2022-08-21T18:49:51.617Z,23.85
2022-08-21T18:52:20.844Z,23.83
2022-08-21T18:54:50.581Z,23.84
2022-08-21T18:57:21.314Z,23.78
2022-08-21T18:59:52.667Z,23.81
2022-08-21T19:02:21.547Z,23.80
2022-08-21T19:04:52.154Z,23.80
2022-08-21T19:07:23.750Z,23.82
2022-08-21T19:10:24.575Z,23.83
2022-08-21T19:12:45.544Z,23.80
2022-08-21T19:15:19.911Z,23.79
2022-08-21T19:17:50.802Z,23.74
2022-08-21T19:20:26.538Z,23.79
2022-08-21T19:22:57.207Z,23.78
2022-08-21T19:25:33.638Z,23.77
2022-08-21T19:28:11.210Z,23.70
2022-08-21T19:33:37.948Z,23.72
2022-08-21T19:36:11.871Z,23.68
2022-08-21T19:38:42.434Z,23.69
2022-08-21T19:41:16.337Z,23.67
2022-08-21T19:43:50.326Z,23.66
2022-08-21T19:46:29.579Z,23.67
2022-08-21T19:49:00.677Z,23.56
2022-08-21T19:51:31.936Z,23.62
2022-08-21T19:54:02.927Z,23.62
2022-08-21T19:56:36.531Z,23.61
2022-08-21T19:59:09.337Z,23.62
2022-08-21T20:01:41.592Z,23.65
2022-08-21T20:04:19.251Z,23.63
2022-08-21T20:06:51.955Z,23.64
2022-08-21T20:09:24.927Z,23.54
2022-08-21T20:11:56.060Z,23.55
2022-08-21T20:14:30.804Z,23.53
2022-08-21T20:17:10.557Z,23.53
2022-08-21T20:19:41.104Z,23.52
2022-08-21T20:22:09.883Z,23.52
2022-08-21T20:24:37.913Z,23.52
2022-08-21T20:27:06.516Z,23.51
2022-08-21T20:29:39.162Z,23.52
2022-08-21T20:34:59.315Z,23.48
2022-08-21T20:37:36.187Z,23.49
2022-08-21T20:40:10.814Z,23.47
2022-08-21T20:42:40.356Z,23.47
2022-08-21T20:45:10.208Z,23.42
2022-08-21T20:47:40.311Z,23.39
2022-08-21T20:50:14.289Z,23.41
2022-08-21T20:52:43.013Z,23.35
2022-08-21T20:55:14.904Z,23.36
2022-08-21T20:57:50.890Z,23.33
2022-08-21T21:00:22.378Z,23.26
2022-08-21T21:03:00.949Z,23.27
2022-08-21T21:05:37.578Z,23.20
2022-08-21T21:08:17.958Z,23.28
2022-08-21T21:10:53.384Z,23.27
2022-08-21T21:13:31.702Z,23.28
2022-08-21T21:16:05.004Z,23.21
2022-08-21T21:18:37.778Z,23.39
2022-08-21T21:21:33.368Z,23.21
2022-08-21T21:24:08.375Z,23.14
2022-08-21T21:26:46.125Z,22.98
2022-08-21T21:29:22.529Z,23.09
2022-08-21T21:31:54.818Z,23.07
2022-08-21T21:34:28.104Z,23.05
2022-08-21T21:37:03.650Z,23.00
2022-08-21T21:39:38.584Z,23.08
2022-08-21T21:42:17.496Z,23.06
2022-08-21T21:45:14.416Z,23.05
2022-08-21T21:48:00.337Z,23.08
2022-08-21T21:50:46.375Z,23.07
2022-08-21T21:53:33.682Z,23.02
2022-08-21T21:56:16.775Z,23.04
2022-08-21T21:59:23.156Z,23.11
2022-08-21T22:01:59.902Z,23.03
2022-08-21T22:04:51.110Z,23.07
2022-08-21T22:07:32.200Z,23.09
2022-08-21T22:10:19.888Z,23.04
2022-08-21T22:13:10.569Z,22.98
2022-08-21T22:15:41.324Z,22.97
2022-08-21T22:18:12.428Z,22.97
2022-08-21T22:20:47.116Z,22.91
2022-08-21T22:23:18.824Z,22.85
2022-08-21T22:25:51.438Z,22.85
2022-08-21T22:28:25.797Z,22.89
2022-08-21T22:30:57.219Z,22.89
2022-08-21T22:33:27.958Z,22.89
2022-08-21T22:35:58.893Z,22.90
2022-08-21T22:38:36.940Z,22.98
2022-08-21T22:41:21.554Z,22.97
2022-08-21T22:43:55.883Z,22.92
2022-08-21T22:46:32.721Z,22.88
2022-08-21T22:49:09.162Z,22.92
2022-08-21T22:51:40.701Z,22.79
2022-08-21T22:54:21.849Z,22.74
2022-08-21T22:57:01.441Z,22.74
2022-08-21T22:59:34.878Z,22.58
2022-08-21T23:02:07.780Z,22.68
2022-08-21T23:04:48.475Z,22.62
2022-08-21T23:07:34.057Z,22.58
2022-08-21T23:10:08.800Z,22.55
2022-08-21T23:12:43.704Z,22.59
2022-08-21T23:15:18.159Z,22.60
2022-08-21T23:17:53.788Z,22.55
2022-08-21T23:20:29.517Z,22.49
2022-08-21T23:23:11.028Z,22.59
2022-08-21T23:25:52.849Z,22.60
2022-08-21T23:28:37.905Z,22.59
2022-08-21T23:31:28.407Z,22.59
2022-08-21T23:34:05.867Z,22.48
2022-08-21T23:36:59.776Z,22.45
2022-08-21T23:39:51.663Z,22.47
2022-08-21T23:42:37.889Z,22.46
2022-08-21T23:45:17.815Z,22.46
2022-08-21T23:47:56.120Z,22.44
2022-08-21T23:50:30.838Z,22.39
2022-08-21T23:53:13.136Z,22.41
2022-08-21T23:55:55.118Z,22.40
2022-08-21T23:58:39.841Z,22.48
